createdAt,value
2022-08-04T00:00:42.977Z,29.99
2022-08-04T00:03:09.397Z,30.08
2022-08-04T00:05:35.807Z,30.08
2022-08-04T00:08:02.222Z,29.98
2022-08-04T00:10:28.637Z,30.06
2022-08-04T00:12:55.046Z,29.98
2022-08-04T00:15:21.464Z,30.03
2022-08-04T00:17:47.869Z,29.99
2022-08-04T00:20:14.423Z,30.01
2022-08-04T00:22:40.823Z,29.91
2022-08-04T00:25:07.236Z,29.93
2022-08-04T00:27:36.491Z,29.99
2022-08-04T00:30:02.938Z,30.00
2022-08-04T00:32:33.778Z,29.92
2022-08-04T00:35:00.698Z,29.95
2022-08-04T00:37:27.106Z,29.99
2022-08-04T00:39:53.515Z,29.85
2022-08-04T00:42:19.934Z,29.86
2022-08-04T00:44:46.345Z,29.89
2022-08-04T00:47:12.817Z,30.02
2022-08-04T00:49:39.329Z,30.03
2022-08-04T00:52:31.513Z,29.85
2022-08-04T00:54:52.116Z,29.77
2022-08-04T00:57:31.192Z,29.73
2022-08-04T01:00:01.146Z,29.73
2022-08-04T01:02:27.554Z,29.80
2022-08-04T01:04:53.947Z,29.86
2022-08-04T01:07:20.498Z,29.73
2022-08-04T01:09:47.030Z,29.86
2022-08-04T01:12:13.521Z,29.87
2022-08-04T01:14:39.932Z,29.96
2022-08-04T01:17:06.338Z,29.86
2022-08-04T01:19:39.340Z,29.94
2022-08-04T01:22:05.752Z,29.92
2022-08-04T01:24:32.162Z,29.87
2022-08-04T01:27:00.969Z,29.91
2022-08-04T01:29:46.592Z,29.84
2022-08-04T01:32:13.596Z,29.83
2022-08-04T01:34:40.018Z,29.77
2022-08-04T01:37:06.432Z,29.71
2022-08-04T01:39:32.894Z,29.75
2022-08-04T01:41:59.359Z,29.75
2022-08-04T01:44:25.760Z,29.75
2022-08-04T01:46:52.180Z,29.78
2022-08-04T01:49:18.610Z,29.77
2022-08-04T01:51:45.013Z,29.43
2022-08-04T01:54:11.420Z,29.44
2022-08-04T01:56:37.894Z,29.58
2022-08-04T01:59:04.306Z,29.64
2022-08-04T02:01:30.787Z,29.68
2022-08-04T02:04:18.304Z,29.66
2022-08-04T02:06:43.685Z,29.47
2022-08-04T02:09:10.113Z,29.34
2022-08-04T02:11:36.513Z,29.45
2022-08-04T02:14:02.938Z,29.57
2022-08-04T02:16:29.352Z,29.54
2022-08-04T02:18:55.764Z,29.54
2022-08-04T02:21:22.168Z,29.49
2022-08-04T02:23:48.585Z,29.56
2022-08-04T02:26:19.389Z,29.48
2022-08-04T02:28:49.224Z,29.44
2022-08-04T02:31:15.655Z,29.46
2022-08-04T02:33:42.064Z,29.48
2022-08-04T02:36:08.989Z,29.48
2022-08-04T02:38:35.397Z,29.46
2022-08-04T02:41:01.828Z,29.46
2022-08-04T02:43:51.086Z,29.43
2022-08-04T02:46:17.955Z,29.36
2022-08-04T02:48:44.704Z,29.37
2022-08-04T02:51:11.109Z,29.34
2022-08-04T02:53:37.535Z,29.31
2022-08-04T02:56:03.951Z,29.30
2022-08-04T02:58:30.364Z,29.34
2022-08-04T03:00:56.834Z,29.34
2022-08-04T03:03:23.276Z,29.37
2022-08-04T03:06:00.706Z,29.33
2022-08-04T03:08:28.096Z,29.33
2022-08-04T03:10:54.505Z,29.39
2022-08-04T03:13:20.902Z,29.38
2022-08-04T03:15:47.307Z,29.39
2022-08-04T03:18:13.727Z,29.40
2022-08-04T03:20:40.140Z,29.34
2022-08-04T03:23:13.540Z,29.36
2022-08-04T03:25:54.369Z,29.38
2022-08-04T03:28:23.814Z,29.34
2022-08-04T03:30:50.220Z,29.25
2022-08-04T03:33:16.682Z,29.30
2022-08-04T03:35:43.120Z,29.35
2022-08-04T03:38:09.512Z,29.25
2022-08-04T03:40:35.911Z,29.36
2022-08-04T03:43:02.313Z,29.33
2022-08-04T03:45:28.735Z,29.38
2022-08-04T03:47:55.164Z,29.35
2022-08-04T03:50:21.560Z,29.38
2022-08-04T03:52:47.975Z,29.25
2022-08-04T03:55:14.391Z,29.37
2022-08-04T03:57:40.785Z,29.35
2022-08-04T04:00:07.197Z,29.34
2022-08-04T04:02:33.603Z,29.25
2022-08-04T04:05:00.034Z,29.28
2022-08-04T04:07:35.824Z,29.17
2022-08-04T04:10:06.347Z,29.19
2022-08-04T04:12:33.972Z,29.19
2022-08-04T04:15:00.386Z,29.13
2022-08-04T04:17:26.802Z,29.18
2022-08-04T04:19:57.617Z,29.13
2022-08-04T04:22:25.127Z,29.15
2022-08-04T04:24:51.540Z,29.09
2022-08-04T04:27:17.985Z,29.05
2022-08-04T04:29:44.395Z,29.11
2022-08-04T04:32:10.801Z,29.07
2022-08-04T04:34:37.222Z,29.07
2022-08-04T04:37:03.634Z,28.97
2022-08-04T04:39:30.123Z,28.97
2022-08-04T04:41:56.565Z,28.99
2022-08-04T04:44:25.230Z,28.99
2022-08-04T04:46:55.173Z,28.90
2022-08-04T04:49:21.572Z,28.90
2022-08-04T04:51:47.991Z,28.87
2022-08-04T04:54:14.385Z,28.88
2022-08-04T04:56:40.776Z,29.03
2022-08-04T04:59:07.184Z,29.14
2022-08-04T05:01:33.590Z,29.21
2022-08-04T05:04:00.005Z,29.19
2022-08-04T05:06:26.400Z,29.20
2022-08-04T05:08:54.492Z,29.21
2022-08-04T05:11:21.126Z,29.22
2022-08-04T05:14:36.358Z,29.24
2022-08-04T05:16:33.929Z,29.25
2022-08-04T05:19:00.329Z,29.25
2022-08-04T05:21:26.750Z,29.27
2022-08-04T05:23:53.153Z,29.26
2022-08-04T05:26:19.548Z,29.27
2022-08-04T05:28:45.962Z,29.27
2022-08-04T05:31:12.374Z,29.25
2022-08-04T05:33:38.790Z,29.27
2022-08-04T05:36:18.683Z,29.30
2022-08-04T05:38:50.331Z,29.31
2022-08-04T05:41:16.840Z,29.32
2022-08-04T05:43:43.247Z,29.33
2022-08-04T05:46:09.651Z,29.30
2022-08-04T05:48:36.065Z,29.33
2022-08-04T05:51:02.496Z,29.33
2022-08-04T05:53:28.895Z,29.34
2022-08-04T05:55:59.313Z,29.35
2022-08-04T05:58:26.329Z,29.36
2022-08-04T06:00:52.788Z,29.40
2022-08-04T06:03:19.255Z,29.18
2022-08-04T06:05:45.664Z,29.13
2022-08-04T06:08:13.389Z,29.08
2022-08-04T06:10:40.468Z,29.16
2022-08-04T06:13:06.861Z,29.19
2022-08-04T06:15:33.290Z,29.29
2022-08-04T06:18:35.216Z,29.32
2022-08-04T06:20:50.249Z,29.26
2022-08-04T06:23:17.275Z,29.21
2022-08-04T06:25:43.682Z,29.25
2022-08-04T06:28:10.085Z,29.30
2022-08-04T06:30:36.506Z,29.28
2022-08-04T06:33:04.102Z,29.36
2022-08-04T06:35:31.474Z,29.37
2022-08-04T06:38:01.047Z,29.36
2022-08-04T06:40:30.612Z,29.41
2022-08-04T06:42:59.149Z,29.40
2022-08-04T06:45:25.566Z,29.36
2022-08-04T06:47:51.978Z,29.34
2022-08-04T06:51:28.745Z,29.27
2022-08-04T06:53:04.814Z,29.34
2022-08-04T06:55:31.220Z,29.30
2022-08-04T06:58:02.495Z,29.32
2022-08-04T07:00:29.611Z,29.32
2022-08-04T07:02:56.034Z,29.30
2022-08-04T07:05:22.451Z,29.36
2022-08-04T07:07:57.241Z,29.36
2022-08-04T07:10:24.843Z,29.40
2022-08-04T07:12:51.379Z,29.40
2022-08-04T07:15:20.454Z,29.40
2022-08-04T07:17:46.863Z,29.38
2022-08-04T07:20:16.667Z,29.39
2022-08-04T07:23:01.588Z,29.42
2022-08-04T07:25:58.608Z,29.38
2022-08-04T07:28:14.389Z,29.43
2022-08-04T07:30:40.790Z,29.45
2022-08-04T07:33:07.189Z,29.40
2022-08-04T07:36:04.570Z,29.43
2022-08-04T07:38:20.819Z,29.40
2022-08-04T07:40:54.159Z,29.39
2022-08-04T07:43:21.822Z,29.40
2022-08-04T07:45:49.550Z,29.40
2022-08-04T07:48:17.294Z,29.44
2022-08-04T07:50:44.998Z,29.42
2022-08-04T07:53:54.143Z,29.47
2022-08-04T07:55:59.758Z,29.44
2022-08-04T07:58:29.930Z,29.40
2022-08-04T08:00:58.089Z,29.34
2022-08-04T08:03:26.154Z,29.41
2022-08-04T08:06:18.087Z,29.42
2022-08-04T08:08:42.233Z,29.42
2022-08-04T08:11:10.221Z,29.44
2022-08-04T08:13:38.182Z,29.44
2022-08-04T08:16:06.152Z,29.46
2022-08-04T08:18:33.850Z,29.52
2022-08-04T08:21:01.691Z,29.44
2022-08-04T08:23:28.606Z,29.51
2022-08-04T08:25:55.038Z,29.53
2022-08-04T08:28:22.343Z,29.55
2022-08-04T08:30:52.838Z,29.51
2022-08-04T08:33:19.409Z,29.46
2022-08-04T08:35:53.510Z,29.49
2022-08-04T08:38:20.734Z,29.51
2022-08-04T08:40:48.394Z,29.50
2022-08-04T08:44:05.122Z,29.50
2022-08-04T08:46:01.210Z,29.52
2022-08-04T08:48:27.618Z,29.55
2022-08-04T08:50:54.049Z,29.57
2022-08-04T08:53:20.456Z,29.54
2022-08-04T08:55:46.871Z,29.59
2022-08-04T08:58:13.294Z,29.66
2022-08-04T09:00:39.706Z,29.64
2022-08-04T09:03:06.099Z,29.62
2022-08-04T09:05:32.516Z,29.63
2022-08-04T09:07:58.913Z,29.66
2022-08-04T09:10:25.331Z,29.71
2022-08-04T09:12:51.736Z,29.71
2022-08-04T09:15:18.136Z,29.74
2022-08-04T09:17:44.645Z,29.73
2022-08-04T09:20:11.076Z,29.74
2022-08-04T09:22:37.472Z,29.73
2022-08-04T09:25:03.876Z,29.72
2022-08-04T09:27:30.290Z,29.74
2022-08-04T09:29:56.709Z,29.76
2022-08-04T09:32:23.101Z,29.77
2022-08-04T09:35:03.669Z,29.76
2022-08-04T09:37:46.114Z,29.77
2022-08-04T09:40:14.748Z,29.77
2022-08-04T09:42:58.399Z,29.80
2022-08-04T09:45:26.775Z,29.77
2022-08-04T09:48:09.473Z,29.83
2022-08-04T09:50:35.979Z,29.85
2022-08-04T09:53:02.399Z,29.85
2022-08-04T09:55:28.818Z,29.82
2022-08-04T09:57:55.237Z,29.83
2022-08-04T10:00:36.379Z,29.86
2022-08-04T10:03:07.963Z,29.85
2022-08-04T10:05:35.231Z,29.86
2022-08-04T10:08:15.747Z,29.88
2022-08-04T10:10:43.400Z,29.88
2022-08-04T10:13:09.810Z,29.92
2022-08-04T10:15:36.212Z,29.89
2022-08-04T10:18:02.635Z,29.96
2022-08-04T10:20:35.961Z,29.96
2022-08-04T10:23:13.006Z,29.96
2022-08-04T10:26:05.708Z,29.95
2022-08-04T10:28:25.804Z,29.97
2022-08-04T10:30:52.206Z,29.95
2022-08-04T10:33:18.630Z,29.91
2022-08-04T10:35:45.033Z,29.94
2022-08-04T10:38:11.459Z,29.98
2022-08-04T10:40:37.890Z,30.00
2022-08-04T10:43:04.314Z,30.04
2022-08-04T10:45:30.731Z,30.06
2022-08-04T10:47:57.144Z,30.08
2022-08-04T10:50:23.956Z,30.07
2022-08-04T10:52:50.385Z,30.06
2022-08-04T10:55:18.338Z,30.09
2022-08-04T10:57:44.961Z,30.05
2022-08-04T11:00:11.379Z,30.04
2022-08-04T11:02:37.853Z,30.00
2022-08-04T11:05:04.300Z,29.98
2022-08-04T11:07:30.713Z,29.96
2022-08-04T11:09:57.127Z,29.96
2022-08-04T11:12:23.529Z,29.97
2022-08-04T11:14:49.932Z,29.99
2022-08-04T11:17:16.412Z,30.03
2022-08-04T11:19:45.102Z,30.06
2022-08-04T11:22:13.952Z,30.05
2022-08-04T11:24:40.450Z,30.01
2022-08-04T11:27:06.852Z,30.04
2022-08-04T11:29:33.257Z,30.09
2022-08-04T11:31:59.670Z,30.14
2022-08-04T11:34:26.080Z,30.17
2022-08-04T11:36:52.478Z,30.17
2022-08-04T11:39:18.953Z,30.17
2022-08-04T11:41:45.445Z,30.13
2022-08-04T11:44:12.760Z,30.10
2022-08-04T11:46:39.410Z,30.11
2022-08-04T11:49:05.833Z,30.08
2022-08-04T11:51:32.254Z,30.11
2022-08-04T11:53:58.663Z,30.13
2022-08-04T11:56:36.833Z,30.12
2022-08-04T11:59:04.346Z,30.15
2022-08-04T12:01:30.766Z,30.12
2022-08-04T12:04:03.815Z,30.11
2022-08-04T12:06:30.823Z,30.12
2022-08-04T12:08:57.244Z,30.15
2022-08-04T12:11:23.667Z,30.22
2022-08-04T12:13:50.077Z,30.24
2022-08-04T12:16:16.481Z,30.30
2022-08-04T12:18:42.901Z,30.35
2022-08-04T12:21:10.070Z,30.34
2022-08-04T12:23:36.913Z,30.28
2022-08-04T12:26:03.331Z,30.27
2022-08-04T12:28:46.231Z,30.22
2022-08-04T12:31:13.089Z,30.30
2022-08-04T12:34:02.933Z,30.27
2022-08-04T12:36:25.870Z,30.28
2022-08-04T12:38:52.307Z,30.27
2022-08-04T12:41:18.826Z,30.36
2022-08-04T12:43:45.223Z,30.37
2022-08-04T12:46:11.630Z,30.38
2022-08-04T12:48:38.046Z,30.34
2022-08-04T12:51:04.455Z,30.34
2022-08-04T12:53:31.748Z,30.37
2022-08-04T12:56:01.965Z,30.33
2022-08-04T12:58:43.349Z,30.39
2022-08-04T13:02:09.880Z,30.34
2022-08-04T13:03:56.725Z,30.36
2022-08-04T13:06:23.450Z,30.36
2022-08-04T13:08:50.016Z,30.44
2022-08-04T13:11:16.435Z,30.43
2022-08-04T13:13:42.844Z,30.45
2022-08-04T13:16:12.805Z,30.43
2022-08-04T13:18:39.545Z,30.41
2022-08-04T13:21:08.243Z,30.39
2022-08-04T13:23:58.402Z,30.44
2022-08-04T13:26:44.251Z,30.40
2022-08-04T13:29:16.325Z,30.38
2022-08-04T13:31:43.385Z,30.41
2022-08-04T13:34:19.501Z,30.37
2022-08-04T13:36:45.938Z,30.42
2022-08-04T13:39:12.409Z,30.41
2022-08-04T13:41:38.980Z,30.42
2022-08-04T13:44:19.404Z,30.43
2022-08-04T13:46:50.694Z,30.42
2022-08-04T13:49:31.324Z,30.43
2022-08-04T13:52:04.626Z,30.41
2022-08-04T13:54:42.960Z,30.41
2022-08-04T13:57:09.605Z,30.40
2022-08-04T13:59:36.022Z,30.41
2022-08-04T14:02:02.426Z,30.42
2022-08-04T14:04:28.836Z,30.38
2022-08-04T14:06:56.419Z,30.42
2022-08-04T14:09:22.830Z,30.40
2022-08-04T14:12:10.423Z,30.40
2022-08-04T14:14:48.436Z,30.40
2022-08-04T14:17:19.892Z,30.42
2022-08-04T14:19:46.883Z,30.44
2022-08-04T14:22:14.246Z,30.43
2022-08-04T14:24:41.686Z,30.44
2022-08-04T14:27:08.094Z,30.46
2022-08-04T14:29:34.517Z,30.48
2022-08-04T14:32:03.339Z,30.46
2022-08-04T14:34:33.471Z,30.48
2022-08-04T14:37:18.310Z,30.51
2022-08-04T14:40:08.292Z,30.48
2022-08-04T14:42:31.687Z,30.50
2022-08-04T14:44:58.098Z,30.51
2022-08-04T14:47:24.513Z,30.55
2022-08-04T14:49:50.925Z,30.56
2022-08-04T14:52:17.346Z,30.67
2022-08-04T14:54:43.745Z,30.70
2022-08-04T14:57:10.169Z,30.71
2022-08-04T14:59:36.569Z,30.74
2022-08-04T15:02:03.070Z,30.76
2022-08-04T15:04:29.497Z,30.80
2022-08-04T15:06:55.892Z,30.80
2022-08-04T15:09:22.303Z,30.77
2022-08-04T15:11:48.714Z,30.69
2022-08-04T15:14:36.266Z,30.68
2022-08-04T15:17:01.551Z,30.67
2022-08-04T15:19:27.956Z,30.67
2022-08-04T15:21:54.352Z,30.66
2022-08-04T15:24:20.765Z,30.67
2022-08-04T15:26:47.177Z,30.68
2022-08-04T15:29:16.714Z,30.65
2022-08-04T15:32:05.669Z,30.63
2022-08-04T15:34:29.824Z,30.57
2022-08-04T15:36:57.581Z,30.58
2022-08-04T15:39:24.227Z,30.61
2022-08-04T15:41:55.096Z,30.66
2022-08-04T15:44:21.926Z,30.64
2022-08-04T15:46:48.333Z,30.64
2022-08-04T15:49:14.733Z,30.66
2022-08-04T15:51:41.156Z,30.64
2022-08-04T15:54:19.643Z,30.63
2022-08-04T15:57:02.220Z,30.62
2022-08-04T15:59:29.613Z,30.66
2022-08-04T16:02:11.472Z,30.64
2022-08-04T16:04:38.346Z,30.63
2022-08-04T16:07:04.769Z,30.66
2022-08-04T16:09:45.164Z,30.70
2022-08-04T16:12:13.766Z,30.70
2022-08-04T16:14:40.345Z,30.70
2022-08-04T16:17:06.746Z,30.72
2022-08-04T16:19:35.901Z,30.70
2022-08-04T16:22:02.441Z,30.74
2022-08-04T16:24:28.832Z,30.75
2022-08-04T16:26:56.544Z,30.75
2022-08-04T16:29:23.658Z,30.76
2022-08-04T16:31:50.081Z,30.78
2022-08-04T16:34:49.330Z,30.75
2022-08-04T16:37:02.873Z,30.74
2022-08-04T16:39:29.451Z,30.73
2022-08-04T16:42:15.679Z,30.73
2022-08-04T16:44:55.629Z,30.74
2022-08-04T16:47:22.950Z,30.70
2022-08-04T16:49:51.781Z,30.71
2022-08-04T16:52:18.489Z,30.68
2022-08-04T16:54:44.889Z,30.72
2022-08-04T16:57:11.310Z,30.70
2022-08-04T16:59:37.714Z,30.76
2022-08-04T17:02:04.171Z,30.74
2022-08-04T17:04:30.635Z,30.73
2022-08-04T17:06:57.053Z,30.73
2022-08-04T17:09:28.198Z,30.73
2022-08-04T17:11:55.121Z,30.77
2022-08-04T17:14:21.536Z,30.77
2022-08-04T17:16:47.948Z,30.76
2022-08-04T17:19:24.075Z,30.80
2022-08-04T17:21:53.032Z,30.81
2022-08-04T17:24:19.440Z,30.84
2022-08-04T17:26:54.614Z,30.81
2022-08-04T17:29:21.342Z,30.78
2022-08-04T17:31:47.924Z,30.81
2022-08-04T17:34:16.566Z,30.82
2022-08-04T17:36:45.835Z,30.81
2022-08-04T17:39:17.043Z,30.80
2022-08-04T17:41:49.255Z,30.83
2022-08-04T17:44:15.996Z,30.82
2022-08-04T17:46:43.363Z,30.80
2022-08-04T17:49:09.989Z,30.79
2022-08-04T17:52:04.768Z,30.80
2022-08-04T17:54:29.826Z,30.74
2022-08-04T17:57:03.243Z,30.93
2022-08-04T17:59:52.925Z,31.03
2022-08-04T18:02:16.067Z,31.15
2022-08-04T18:05:06.134Z,31.18
2022-08-04T18:08:40.082Z,31.23
2022-08-04T18:10:32.912Z,31.26
2022-08-04T18:13:01.662Z,31.26
2022-08-04T18:15:29.966Z,31.28
2022-08-04T18:18:21.791Z,31.32
2022-08-04T18:20:49.983Z,31.37
2022-08-04T18:23:19.475Z,31.32
2022-08-04T18:25:57.970Z,31.34
2022-08-04T18:28:26.796Z,31.37
2022-08-04T18:33:42.139Z,31.33
2022-08-04T18:36:35.388Z,31.20
2022-08-04T18:38:58.079Z,31.25
2022-08-04T18:41:25.216Z,31.23
2022-08-04T18:43:55.644Z,31.34
2022-08-04T18:46:23.212Z,31.28
2022-08-04T18:48:53.420Z,31.29
2022-08-04T18:51:23.758Z,31.45
2022-08-04T18:53:55.314Z,31.37
2022-08-04T18:56:29.624Z,31.39
2022-08-04T18:58:58.093Z,31.41
2022-08-04T19:01:30.017Z,31.45
2022-08-04T19:04:34.020Z,31.42
2022-08-04T19:07:23.492Z,31.34
2022-08-04T19:09:51.519Z,31.40
2022-08-04T19:12:27.038Z,31.43
2022-08-04T19:14:57.901Z,31.39
2022-08-04T19:17:53.379Z,31.48
2022-08-04T19:24:10.978Z,31.32
2022-08-04T19:25:58.857Z,31.29
2022-08-04T19:28:30.108Z,31.27
2022-08-04T19:31:00.711Z,31.26
2022-08-04T19:33:28.545Z,31.28
2022-08-04T19:36:13.513Z,31.28
2022-08-04T19:38:43.600Z,31.32
2022-08-04T19:41:14.375Z,31.29
2022-08-04T19:43:43.775Z,31.22
2022-08-04T19:46:10.575Z,31.24
2022-08-04T19:48:38.747Z,31.24
2022-08-04T19:51:05.241Z,31.22
2022-08-04T19:53:37.709Z,31.16
2022-08-04T19:56:09.509Z,31.18
2022-08-04T19:58:36.532Z,31.20
2022-08-04T20:01:03.152Z,31.24
2022-08-04T20:04:09.364Z,31.23
2022-08-04T20:06:15.958Z,31.23
2022-08-04T20:08:48.344Z,31.20
2022-08-04T20:11:15.283Z,31.16
2022-08-04T20:13:42.290Z,31.23
2022-08-04T20:16:30.252Z,31.14
2022-08-04T20:18:59.452Z,31.12
2022-08-04T20:21:54.435Z,31.18
2022-08-04T20:24:39.385Z,31.19
2022-08-04T20:27:07.601Z,31.13
2022-08-04T20:29:40.335Z,31.12
2022-08-04T20:32:08.944Z,31.15
2022-08-04T20:34:36.168Z,31.16
2022-08-04T20:37:02.868Z,31.15
2022-08-04T20:39:30.343Z,31.14
2022-08-04T20:41:56.780Z,31.19
2022-08-04T20:44:24.126Z,31.14
2022-08-04T20:46:50.858Z,31.14
2022-08-04T20:49:17.276Z,31.16
2022-08-04T20:51:44.043Z,31.19
2022-08-04T20:54:16.894Z,31.23
2022-08-04T20:56:51.073Z,31.23
2022-08-04T20:59:17.878Z,31.24
2022-08-04T21:01:45.351Z,31.24
2022-08-04T21:04:15.268Z,31.24
2022-08-04T21:06:54.946Z,31.22
2022-08-04T21:09:26.682Z,31.26
2022-08-04T21:12:04.111Z,31.24
2022-08-04T21:14:30.528Z,31.26
2022-08-04T21:16:56.943Z,31.24
2022-08-04T21:19:24.841Z,31.26
2022-08-04T21:21:53.643Z,31.25
2022-08-04T21:24:20.075Z,31.26
2022-08-04T21:26:56.406Z,31.20
2022-08-04T21:29:23.367Z,31.15
2022-08-04T21:32:01.419Z,31.12
2022-08-04T21:34:39.062Z,31.12
2022-08-04T21:37:06.181Z,31.15
2022-08-04T21:39:50.287Z,31.13
2022-08-04T21:42:38.064Z,31.10
2022-08-04T21:45:08.579Z,31.07
2022-08-04T21:47:45.884Z,31.08
2022-08-04T21:50:13.249Z,31.03
2022-08-04T21:52:46.605Z,31.11
2022-08-04T21:55:13.015Z,31.09
2022-08-04T21:57:42.038Z,31.11
2022-08-04T22:00:18.296Z,31.07
2022-08-04T22:02:45.076Z,31.06
2022-08-04T22:05:11.574Z,31.06
2022-08-04T22:07:50.099Z,31.11
2022-08-04T22:10:18.570Z,31.10
2022-08-04T22:12:58.853Z,31.07
2022-08-04T22:16:03.938Z,31.07
2022-08-04T22:18:11.666Z,31.09
2022-08-04T22:20:38.758Z,31.07
2022-08-04T22:23:16.759Z,31.07
2022-08-04T22:25:44.982Z,31.07
2022-08-04T22:28:20.197Z,31.05
2022-08-04T22:30:48.392Z,31.06
2022-08-04T22:33:18.854Z,31.02
2022-08-04T22:35:49.909Z,31.03
2022-08-04T22:38:24.210Z,31.07
2022-08-04T22:40:55.554Z,31.03
2022-08-04T22:43:32.500Z,31.04
2022-08-04T22:46:00.358Z,31.05
2022-08-04T22:48:28.526Z,30.91
2022-08-04T22:50:58.618Z,30.99
2022-08-04T22:53:25.212Z,30.98
2022-08-04T22:55:57.506Z,31.03
2022-08-04T22:58:35.922Z,30.97
2022-08-04T23:01:06.483Z,30.96
2022-08-04T23:03:37.406Z,31.00
2022-08-04T23:06:04.930Z,30.98
2022-08-04T23:08:31.335Z,30.85
2022-08-04T23:11:02.820Z,30.98
2022-08-04T23:13:29.226Z,30.93
2022-08-04T23:15:55.633Z,30.93
2022-08-04T23:18:22.037Z,30.98
2022-08-04T23:20:48.761Z,31.00
2022-08-04T23:23:19.250Z,31.00
2022-08-04T23:26:07.771Z,30.95
2022-08-04T23:28:32.042Z,30.95
2022-08-04T23:30:58.454Z,30.93
2022-08-04T23:33:24.874Z,30.94
2022-08-04T23:36:11.903Z,30.96
2022-08-04T23:38:38.415Z,30.96
2022-08-04T23:41:05.732Z,30.94
2022-08-04T23:43:38.510Z,30.90
2022-08-04T23:46:15.909Z,30.90
2022-08-04T23:48:42.664Z,30.90
2022-08-04T23:51:13.719Z,30.85
2022-08-04T23:54:01.585Z,30.87
2022-08-04T23:56:27.997Z,30.91
2022-08-04T23:58:55.668Z,30.94
